Time;durP1;ratioP1;P1;durP2;ratioP2;P2;SDS_P1;SDS_P2;PMS_P1;PMS_P2;Temp;Humidity;BMP_temperature;BMP_pressure;BME280_temperature;BME280_humidity;BME280_pressure;Samples;Min_cycle;Max_cycle;Signal;HPM_P1;HPM_P2
2023/08/18 00:01:39;;;;;;;2.38;1.60;;;;;;;24.28;48.35;99957.75;10459403;28;20045;-72
2023/08/18 00:06:40;;;;;;;4.05;2.08;;;;;;;24.15;48.59;99969.13;10457783;28;20060;-72
2023/08/18 00:11:40;;;;;;;6.45;2.35;;;;;;;23.64;49.16;99920.91;10459088;28;20036;-72
2023/08/18 00:16:41;;;;;;;3.88;2.22;;;;;;;23.60;50.14;99946.09;10458922;28;20581;-72
2023/08/18 00:21:42;;;;;;;7.63;2.38;;;;;;;23.34;50.51;99928.88;10458383;28;20040;-72
2023/08/18 00:26:44;;;;;;;6.32;2.20;;;;;;;22.97;51.24;99894.50;10458918;28;20580;-72
2023/08/18 00:31:45;;;;;;;13.50;2.60;;;;;;;23.26;51.59;99961.91;10457787;28;20120;-72
2023/08/18 00:36:46;;;;;;;5.57;2.10;;;;;;;23.00;52.10;99940.88;10457484;28;20037;-73
2023/08/18 00:41:47;;;;;;;3.58;1.92;;;;;;;22.94;53.23;99960.00;10456101;28;20059;-73
2023/08/18 00:46:48;;;;;;;6.65;2.08;;;;;;;22.81;53.76;99949.63;10456191;28;20048;-72
2023/08/18 00:51:49;;;;;;;5.78;2.05;;;;;;;22.81;53.37;99963.16;10455933;28;20416;-72
2023/08/18 00:56:50;;;;;;;7.88;2.30;;;;;;;22.71;54.19;99959.28;10456808;28;20098;-73
2023/08/18 01:01:51;;;;;;;9.20;2.22;;;;;;;22.67;54.71;99970.88;10456769;28;20037;-72
2023/08/18 01:06:52;;;;;;;4.57;2.17;;;;;;;22.74;54.66;99966.91;10456637;28;20419;-72
2023/08/18 01:12:04;;;;;;;5.72;2.13;;;;;;;22.69;54.91;99979.56;10456766;28;20033;-72
2023/08/18 01:17:28;;;;;;;11.38;2.55;;;;;;;22.64;56.23;99976.81;10455920;28;20041;-72
2023/08/18 01:22:32;;;;;;;4.35;1.92;;;;;;;21.98;55.47;99907.38;10455831;28;20048;-72
2023/08/18 01:27:33;;;;;;;16.55;3.22;;;;;;;22.28;56.11;99960.22;10465837;28;20510;-72
2023/08/18 01:32:42;;;;;;;24.50;3.58;;;;;;;22.38;57.11;99983.88;10455000;28;20056;-72
2023/08/18 01:37:44;;;;;;;16.42;2.58;;;;;;;21.91;56.75;99920.28;10456333;28;20491;-73
2023/08/18 01:42:45;;;;;;;10.15;2.47;;;;;;;22.26;56.36;99992.13;10456326;28;20523;-73
2023/08/18 01:47:46;;;;;;;31.55;3.67;;;;;;;22.10;56.96;99982.97;10455366;28;20114;-73
2023/08/18 01:52:47;;;;;;;26.55;3.50;;;;;;;21.68;56.57;99913.25;10463371;28;20090;-73
2023/08/18 01:57:48;;;;;;;63.13;7.07;;;;;;;22.15;56.34;99991.16;10471814;28;20044;-73
2023/08/18 02:02:49;;;;;;;68.60;5.53;;;;;;;21.99;56.61;99951.50;10479241;28;20060;-73
2023/08/18 02:07:49;;;;;;;24.50;3.05;;;;;;;22.30;56.21;100004.88;10455593;28;20545;-72
2023/08/18 02:12:50;;;;;;;82.45;6.15;;;;;;;22.39;56.22;100007.97;10454839;28;20037;-73
2023/08/18 02:17:51;;;;;;;21.55;2.90;;;;;;;22.35;55.19;100012.25;10483205;28;20503;-73
2023/08/18 02:22:52;;;;;;;23.55;3.22;;;;;;;22.48;55.04;100016.44;10495601;28;20457;-72
2023/08/18 02:27:53;;;;;;;24.08;3.45;;;;;;;22.24;54.27;99981.56;10495419;28;20044;-73
2023/08/18 02:32:53;;;;;;;34.83;4.50;;;;;;;22.66;54.03;100034.22;10494532;28;20044;-72
2023/08/18 02:37:54;;;;;;;39.80;4.78;;;;;;;22.66;54.70;100018.78;10495334;28;20032;-73
2023/08/18 02:42:55;;;;;;;56.50;6.55;;;;;;;22.79;54.59;100025.69;10494775;28;20037;-73
2023/08/18 02:47:57;;;;;;;17.38;3.22;;;;;;;22.81;54.17;100023.53;10495730;28;20040;-73
2023/08/18 02:53:00;;;;;;;98.00;8.30;;;;;;;22.81;54.89;100003.78;10493154;28;20040;-73
2023/08/18 02:58:03;;;;;;;15.00;3.38;;;;;;;22.64;53.96;99965.97;10494802;28;20518;-72
2023/08/18 03:03:04;;;;;;;16.83;3.10;;;;;;;22.92;53.47;99975.72;10483520;28;20049;-73
2023/08/18 03:08:05;;;;;;;43.05;4.18;;;;;;;23.40;53.81;100033.56;10478266;28;20060;-73
2023/08/18 03:13:06;;;;;;;11.32;2.92;;;;;;;23.42;52.28;99977.16;10453551;28;20047;-73
2023/08/18 03:18:07;;;;;;;9.63;2.10;;;;;;;23.90;51.80;100048.50;10474103;28;20094;-73
2023/08/18 03:23:08;;;;;;;9.45;2.60;;;;;;;24.12;50.99;100022.03;10485992;28;20133;-73
2023/08/18 03:28:09;;;;;;;22.65;2.60;;;;;;;24.56;50.53;100035.25;10453112;28;20544;-73
2023/08/18 03:33:11;;;;;;;19.13;3.42;;;;;;;25.66;48.46;100033.91;10451960;28;20562;-73
2023/08/18 03:38:11;;;;;;;18.48;3.28;;;;;;;25.61;48.93;100038.56;10452485;28;20191;-73
2023/08/18 03:43:12;;;;;;;28.83;3.42;;;;;;;25.48;48.94;100054.31;10456848;28;20563;-73
2023/08/18 03:48:13;;;;;;;56.08;4.85;;;;;;;26.37;47.54;100024.69;10460187;28;20459;-73
2023/08/18 03:53:14;;;;;;;16.23;2.95;;;;;;;26.74;46.56;100050.63;10459719;28;20098;-76
2023/08/18 03:58:15;;;;;;;11.57;2.72;;;;;;;26.17;46.75;100022.06;10485771;28;20557;-73
2023/08/18 04:03:15;;;;;;;9.38;2.65;;;;;;;26.77;46.17;100066.41;10483943;28;20098;-74
2023/08/18 04:08:16;;;;;;;9.57;2.80;;;;;;;26.02;45.93;99970.41;10478193;28;20091;-75
2023/08/18 04:13:17;;;;;;;11.95;2.45;;;;;;;27.91;44.11;100056.22;10459243;28;20056;-75
2023/08/18 04:18:18;;;;;;;21.27;2.95;;;;;;;28.20;43.50;100059.69;10467556;28;20131;-74
2023/08/18 04:23:19;;;;;;;10.57;2.85;;;;;;;28.39;43.29;100069.81;10465949;28;20040;-75
2023/08/18 04:28:20;;;;;;;26.65;5.03;;;;;;;28.30;42.81;100012.31;10480465;28;20041;-74
2023/08/18 04:33:21;;;;;;;21.67;3.78;;;;;;;28.64;42.20;100074.19;10490247;28;20052;-75
2023/08/18 04:38:22;;;;;;;22.40;4.32;;;;;;;29.19;41.55;100073.66;10499326;28;20386;-75
2023/08/18 04:43:22;;;;;;;12.35;3.50;;;;;;;28.82;40.98;100021.41;10483970;28;20052;-74
2023/08/18 04:48:24;;;;;;;5.43;2.70;;;;;;;28.83;41.36;100072.25;10457966;28;20057;-80
2023/08/18 04:53:25;;;;;;;16.95;2.30;;;;;;;29.25;40.44;100034.16;10459013;28;20041;-75
2023/08/18 04:58:26;;;;;;;13.57;2.15;;;;;;;30.19;38.70;100087.72;10457936;28;20462;-75
2023/08/18 05:03:26;;;;;;;9.60;2.50;;;;;;;30.29;38.23;100087.53;10456678;28;20036;-75
2023/08/18 05:08:27;;;;;;;19.45;3.40;;;;;;;29.86;38.61;100079.59;10456757;28;20405;-75
2023/08/18 05:13:28;;;;;;;11.45;2.03;;;;;;;29.05;39.66;100052.53;10456448;28;20064;-75
2023/08/18 05:18:30;;;;;;;17.80;3.10;;;;;;;29.67;39.25;100065.16;10456967;28;20048;-74
2023/08/18 05:23:31;;;;;;;21.15;2.70;;;;;;;29.81;38.99;100079.69;10457147;28;20036;-75
2023/08/18 05:28:35;;;;;;;24.90;2.95;;;;;;;29.24;39.00;100021.59;10456872;28;20045;-75
2023/08/18 05:33:35;;;;;;;5.65;3.33;;;;;;;29.29;38.94;100026.97;10455203;28;20036;-75
2023/08/18 05:38:36;;;;;;;12.50;3.35;;;;;;;29.45;39.37;100074.84;10455275;28;20528;-75
2023/08/18 05:43:37;;;;;;;12.05;2.83;;;;;;;30.14;38.51;100094.09;10456203;28;20033;-74
2023/08/18 05:48:38;;;;;;;4.90;2.15;;;;;;;30.13;37.68;100023.22;10455516;28;20051;-75
2023/08/18 05:53:39;;;;;;;7.97;2.53;;;;;;;30.37;37.81;100092.31;10455587;28;20056;-74
2023/08/18 05:58:40;;;;;;;3.58;2.05;;;;;;;30.50;36.97;100084.38;10454711;28;20063;-75
2023/08/18 06:03:41;;;;;;;10.68;2.60;;;;;;;30.36;37.60;100085.19;10455264;28;20060;-75
2023/08/18 06:08:42;;;;;;;8.30;2.33;;;;;;;30.24;36.81;100006.28;10454691;28;20064;-74
2023/08/18 06:13:42;;;;;;;10.13;2.92;;;;;;;30.80;36.47;100039.84;10454238;28;20037;-74
2023/08/18 06:18:43;;;;;;;4.78;2.20;;;;;;;31.19;36.27;100078.69;10454889;28;20052;-75
2023/08/18 06:23:44;;;;;;;12.18;2.45;;;;;;;31.48;36.13;100062.59;10454636;28;20503;-74
2023/08/18 06:28:44;;;;;;;7.05;2.20;;;;;;;31.56;35.57;100012.41;10454374;28;20122;-74
2023/08/18 06:33:45;;;;;;;10.10;1.92;;;;;;;32.21;34.57;100071.31;10454318;28;20051;-74
2023/08/18 06:38:46;;;;;;;10.48;2.60;;;;;;;32.56;34.81;100054.09;10453762;28;20043;-74
2023/08/18 06:43:47;;;;;;;14.55;2.35;;;;;;;32.72;33.34;100061.53;10454563;28;20052;-73
2023/08/18 06:48:47;;;;;;;13.25;2.25;;;;;;;32.53;32.51;100047.31;10454027;28;20110;-74
2023/08/18 06:53:48;;;;;;;17.52;2.05;;;;;;;32.77;32.61;100057.03;10453519;28;20063;-74
2023/08/18 06:58:49;;;;;;;15.40;2.50;;;;;;;32.95;32.13;100056.69;10453319;28;20045;-74
2023/08/18 07:03:49;;;;;;;9.27;2.17;;;;;;;33.02;32.08;100041.66;10453827;28;20044;-75
2023/08/18 07:08:50;;;;;;;8.15;1.90;;;;;;;32.60;31.42;99945.06;10453562;28;20466;-74
2023/08/18 07:13:51;;;;;;;13.45;2.22;;;;;;;33.57;31.15;100047.22;10453649;28;20045;-74
2023/08/18 07:18:52;;;;;;;8.73;2.08;;;;;;;33.44;30.66;100044.63;10459091;28;20043;-74
2023/08/18 07:23:52;;;;;;;13.73;2.45;;;;;;;33.82;30.54;100036.41;10461343;28;20089;-74
2023/08/18 07:28:53;;;;;;;14.25;2.35;;;;;;;33.83;30.28;100003.03;10461360;28;20048;-73
2023/08/18 07:33:54;;;;;;;8.82;2.20;;;;;;;34.04;29.81;100025.16;10460297;28;20064;-74
2023/08/18 07:38:56;;;;;;;13.43;1.85;;;;;;;33.90;29.50;100016.28;10460506;28;20036;-73
2023/08/18 07:43:56;;;;;;;16.25;2.42;;;;;;;34.12;29.30;100019.91;10460070;28;20044;-74
2023/08/18 07:48:57;;;;;;;28.25;3.15;;;;;;;34.28;29.07;100029.19;10460650;28;20385;-73
2023/08/18 07:53:58;;;;;;;15.30;2.30;;;;;;;34.28;28.96;100023.69;10459993;28;20033;-74
2023/08/18 07:58:58;;;;;;;4.50;1.90;;;;;;;34.37;28.77;100035.47;10460499;28;20051;-73
2023/08/18 08:03:59;;;;;;;6.53;2.00;;;;;;;34.47;28.67;100012.22;10459777;28;20052;-76
2023/08/18 08:09:00;;;;;;;7.72;2.00;;;;;;;34.41;28.36;99989.53;10460161;28;20061;-73
2023/08/18 08:14:01;;;;;;;19.83;2.42;;;;;;;34.58;28.31;99998.84;10458783;28;20064;-73
2023/08/18 08:19:05;;;;;;;32.43;3.37;;;;;;;34.58;28.77;99972.03;10461562;28;20037;-74
2023/08/18 08:24:06;;;;;;;11.88;2.45;;;;;;;34.81;28.33;100008.34;10480115;28;20064;-74
2023/08/18 08:29:07;;;;;;;15.97;2.57;;;;;;;34.70;27.78;99963.03;10477358;28;20048;-74
2023/08/18 08:34:08;;;;;;;36.25;3.45;;;;;;;35.07;27.93;99979.75;10477487;28;20276;-74
2023/08/18 08:39:09;;;;;;;11.93;1.98;;;;;;;34.84;27.60;99963.53;10477694;28;20040;-75
2023/08/18 08:44:09;;;;;;;13.98;2.30;;;;;;;35.03;27.45;99982.31;10485277;28;20090;-74
2023/08/18 08:49:12;;;;;;;10.30;2.00;;;;;;;35.02;27.03;99958.63;10477462;28;20119;-74
2023/08/18 08:54:17;;;;;;;7.22;1.83;;;;;;;35.24;26.83;99992.53;10485571;28;20043;-73
2023/08/18 08:59:18;;;;;;;4.63;1.77;;;;;;;35.34;26.98;99995.66;10472202;28;20111;-74
2023/08/18 09:04:20;;;;;;;4.95;2.10;;;;;;;34.91;27.20;99933.44;10476624;28;20056;-75
2023/08/18 09:09:22;;;;;;;6.85;1.95;;;;;;;34.92;27.68;99928.72;10477377;28;20098;-75
2023/08/18 09:14:22;;;;;;;3.15;1.70;;;;;;;35.44;27.00;99986.91;10483752;28;20531;-75
2023/08/18 09:19:26;;;;;;;26.15;2.88;;;;;;;35.33;26.80;99966.44;10481413;28;20048;-75
2023/08/18 09:24:29;;;;;;;13.65;2.42;;;;;;;35.26;27.04;99940.53;10477346;28;20032;-75
2023/08/18 09:29:30;;;;;;;11.57;2.40;;;;;;;35.62;26.86;99981.19;10475156;28;20063;-75
2023/08/18 09:34:36;;;;;;;15.07;2.40;;;;;;;35.56;26.90;99980.63;10476039;28;20040;-75
2023/08/18 09:39:37;;;;;;;18.25;2.47;;;;;;;35.59;26.93;99982.69;10475582;28;20037;-75
2023/08/18 09:44:37;;;;;;;6.68;2.00;;;;;;;35.51;26.55;99967.03;10475001;28;20032;-73
2023/08/18 09:49:40;;;;;;;9.90;2.20;;;;;;;35.62;26.22;99970.16;10475485;28;20068;-75
2023/08/18 09:54:51;;;;;;;24.67;2.65;;;;;;;35.72;26.37;99964.16;10474407;28;20040;-74
2023/08/18 09:59:57;;;;;;;17.43;2.10;;;;;;;35.83;26.73;99983.84;10483930;28;20040;-75
2023/08/18 10:04:58;;;;;;;6.25;2.00;;;;;;;35.97;26.67;99975.19;10481841;28;20044;-75
2023/08/18 10:10:00;;;;;;;5.35;1.90;;;;;;;35.79;26.99;99945.03;10480009;28;20585;-75
2023/08/18 10:15:02;;;;;;;11.32;2.33;;;;;;;35.92;26.63;99958.84;10475612;28;20098;-76
2023/08/18 10:20:04;;;;;;;3.67;1.80;;;;;;;36.11;26.71;99978.44;10472200;28;20037;-75
2023/08/18 10:25:06;;;;;;;12.80;4.83;;;;;;;36.19;25.90;99982.19;10475616;28;20048;-75
2023/08/18 10:30:07;;;;;;;10.07;3.53;;;;;;;35.94;25.89;99915.06;10479507;28;20517;-75
2023/08/18 10:35:25;;;;;;;4.33;2.50;;;;;;;35.81;26.22;99947.44;10474920;28;20083;-75
2023/08/18 10:40:26;;;;;;;5.72;2.50;;;;;;;35.86;26.79;99947.22;10474714;28;20036;-75
2023/08/18 10:45:28;;;;;;;17.37;3.40;;;;;;;36.26;26.85;99969.41;10472676;28;20103;-74
2023/08/18 10:50:31;;;;;;;7.78;1.92;;;;;;;36.01;26.24;99916.06;10488508;28;20127;-75
2023/08/18 10:55:31;;;;;;;16.55;2.20;;;;;;;36.38;26.35;99957.50;10485776;28;20033;-74
2023/08/18 11:00:35;;;;;;;26.08;2.92;;;;;;;36.25;25.75;99948.41;10495463;28;20048;-75
2023/08/18 11:05:37;;;;;;;20.20;2.60;;;;;;;36.13;25.81;99967.81;10490761;28;20037;-75
2023/08/18 11:10:39;;;;;;;30.75;3.58;;;;;;;36.21;26.65;99974.38;10491447;28;20045;-74
2023/08/18 11:15:40;;;;;;;17.25;2.60;;;;;;;36.34;26.08;99962.91;10486227;28;20051;-75
2023/08/18 11:20:42;;;;;;;5.85;2.03;;;;;;;36.31;25.80;99948.97;10479559;28;20066;-75
2023/08/18 11:25:42;;;;;;;5.30;1.98;;;;;;;36.26;25.23;99954.78;10486035;28;20029;-75
2023/08/18 11:30:44;;;;;;;6.22;2.10;;;;;;;35.90;25.91;99917.75;10492007;28;20384;-75
2023/08/18 11:35:44;;;;;;;10.60;2.13;;;;;;;35.87;26.26;99899.09;10479063;28;20036;-72
2023/08/18 11:40:46;;;;;;;17.52;2.58;;;;;;;35.92;26.25;99909.88;10487809;28;20532;-75
2023/08/18 11:45:47;;;;;;;9.13;1.95;;;;;;;36.00;26.40;99908.16;10482963;28;20123;-74
2023/08/18 11:50:54;;;;;;;20.08;3.13;;;;;;;36.18;26.62;99956.50;10480879;28;20045;-73
2023/08/18 11:55:57;;;;;;;28.52;4.32;;;;;;;36.20;27.31;99945.91;10489531;28;20115;-74
2023/08/18 12:01:04;;;;;;;11.20;2.00;;;;;;;36.15;25.46;99948.91;10491015;28;20054;-75
2023/08/18 12:06:04;;;;;;;8.68;2.15;;;;;;;36.13;26.46;99939.34;10485790;28;20048;-74
2023/08/18 12:11:05;;;;;;;16.05;2.45;;;;;;;35.63;26.66;99886.09;10478304;28;20487;-74
2023/08/18 12:16:06;;;;;;;13.13;2.50;;;;;;;36.17;26.16;99943.84;10485817;28;20064;-75
2023/08/18 12:21:07;;;;;;;15.98;2.47;;;;;;;36.32;25.63;99940.34;10481857;28;20040;-75
2023/08/18 12:26:07;;;;;;;37.38;3.88;;;;;;;36.09;26.13;99873.69;10478597;28;20044;-75
2023/08/18 12:31:08;;;;;;;10.27;2.25;;;;;;;36.38;25.92;99929.00;10484464;28;20039;-75
2023/08/18 12:36:09;;;;;;;12.25;2.08;;;;;;;36.37;25.60;99944.81;10478382;28;20099;-75
2023/08/18 12:41:10;;;;;;;12.73;2.70;;;;;;;36.33;25.67;99944.72;10484701;28;20036;-76
2023/08/18 12:46:10;;;;;;;6.53;2.08;;;;;;;36.14;25.73;99911.38;10477033;28;20423;-76
2023/08/18 12:51:11;;;;;;;8.60;2.45;;;;;;;36.20;25.26;99928.50;10485455;28;20060;-76
2023/08/18 12:56:12;;;;;;;6.65;2.03;;;;;;;35.66;26.56;99911.09;10483592;28;20094;-75
2023/08/18 13:01:13;;;;;;;10.48;2.13;;;;;;;35.24;26.77;99926.25;10475632;28;20136;-75
2023/08/18 13:06:14;;;;;;;5.60;2.00;;;;;;;35.34;26.41;99945.94;10477639;28;20140;-76
2023/08/18 13:11:14;;;;;;;7.63;2.03;;;;;;;35.25;26.30;99900.28;10474977;28;20097;-76
2023/08/18 13:16:15;;;;;;;15.63;2.50;;;;;;;35.49;26.25;99929.84;10477541;28;20045;-75
2023/08/18 13:21:17;;;;;;;10.68;2.30;;;;;;;35.06;26.39;99887.00;10481044;28;20051;-76
2023/08/18 13:26:18;;;;;;;21.88;2.60;;;;;;;35.32;26.31;99939.94;10483808;28;20127;-76
2023/08/18 13:31:19;;;;;;;17.13;2.80;;;;;;;35.32;26.52;99952.97;10474438;28;20135;-75
2023/08/18 13:36:20;;;;;;;12.02;2.25;;;;;;;35.20;26.26;99926.13;10483852;28;20052;-76
2023/08/18 13:41:21;;;;;;;13.20;2.20;;;;;;;35.36;26.34;99935.38;10475483;28;20503;-76
2023/08/18 13:46:22;;;;;;;17.45;3.47;;;;;;;35.10;26.55;99912.78;10484138;28;20408;-75
2023/08/18 13:51:22;;;;;;;17.35;2.42;;;;;;;35.34;26.70;99940.44;10496033;28;20053;-75
2023/08/18 13:56:23;;;;;;;15.15;2.50;;;;;;;35.27;26.67;99942.97;10492100;28;20036;-76
2023/08/18 14:01:24;;;;;;;14.73;2.53;;;;;;;35.15;26.96;99943.75;10468116;28;20037;-75
2023/08/18 14:06:25;;;;;;;28.65;3.40;;;;;;;34.93;26.85;99925.59;10463721;28;20048;-75
2023/08/18 14:11:26;;;;;;;29.10;2.85;;;;;;;34.79;26.92;99927.88;10491125;28;20064;-76
2023/08/18 14:16:26;;;;;;;11.20;2.85;;;;;;;34.80;26.81;99943.28;10493533;28;20052;-76
2023/08/18 14:21:27;;;;;;;8.50;2.38;;;;;;;34.55;26.85;99934.13;10490281;28;20033;-75
2023/08/18 14:26:28;;;;;;;20.35;2.55;;;;;;;34.40;26.95;99920.94;10453934;28;20079;-75
2023/08/18 14:31:29;;;;;;;64.85;5.03;;;;;;;34.14;26.93;99896.34;10454809;28;20049;-75
2023/08/18 14:36:30;;;;;;;26.45;3.05;;;;;;;34.23;27.19;99930.97;10453833;28;20045;-76
2023/08/18 14:41:31;;;;;;;81.38;5.82;;;;;;;33.79;27.90;99902.09;10454241;28;20037;-75
2023/08/18 14:46:32;;;;;;;19.45;2.63;;;;;;;33.71;27.75;99912.00;10453605;28;20041;-75
2023/08/18 14:51:32;;;;;;;42.03;4.05;;;;;;;33.85;28.18;99951.16;10454365;28;20037;-75
2023/08/18 14:56:33;;;;;;;7.82;2.15;;;;;;;33.79;28.31;99957.19;10452869;28;20048;-75
2023/08/18 15:01:34;;;;;;;21.77;2.60;;;;;;;33.62;28.58;99966.34;10454187;28;20041;-75
2023/08/18 15:06:36;;;;;;;13.32;2.47;;;;;;;33.16;28.74;99919.22;10453269;28;20085;-75
2023/08/18 15:11:37;;;;;;;31.57;3.13;;;;;;;33.31;28.05;99961.91;10453218;28;20080;-75
2023/08/18 15:16:38;;;;;;;25.87;3.40;;;;;;;33.22;29.06;99961.16;10452451;28;20503;-76
2023/08/18 15:21:39;;;;;;;26.23;3.40;;;;;;;32.90;29.18;99943.22;10453807;28;20049;-76
2023/08/18 15:26:40;;;;;;;33.13;3.55;;;;;;;32.81;29.49;99973.50;10452635;28;20047;-75
2023/08/18 15:31:40;;;;;;;22.42;3.42;;;;;;;32.48;30.13;99960.28;10453898;28;20068;-76
2023/08/18 15:36:41;;;;;;;27.02;3.65;;;;;;;32.34;30.30;99981.63;10454236;28;20467;-76
2023/08/18 15:41:42;;;;;;;25.45;5.95;;;;;;;32.16;30.06;99980.78;10461343;28;20041;-76
2023/08/18 15:46:43;;;;;;;32.28;5.97;;;;;;;31.67;30.65;99937.97;10460143;28;20033;-75
2023/08/18 15:51:44;;;;;;;39.47;3.58;;;;;;;31.66;30.62;99967.38;10459822;28;20051;-76
2023/08/18 15:56:45;;;;;;;34.78;8.60;;;;;;;31.60;30.79;99985.94;10460204;28;20037;-76
2023/08/18 16:01:45;;;;;;;33.88;12.40;;;;;;;31.11;30.74;99937.56;10458316;28;20519;-76
2023/08/18 16:06:46;;;;;;;37.30;10.82;;;;;;;31.28;31.06;99994.47;10459811;28;20056;-76
2023/08/18 16:11:47;;;;;;;54.38;12.80;;;;;;;31.05;30.95;99988.22;10460131;28;20051;-76
2023/08/18 16:16:48;;;;;;;75.10;22.60;;;;;;;30.82;31.01;99988.22;10458935;28;20041;-75
2023/08/18 16:21:48;;;;;;;118.15;17.75;;;;;;;30.77;31.32;100009.44;10458603;28;20079;-76
2023/08/18 16:26:51;;;;;;;25.50;8.95;;;;;;;30.43;31.63;99989.69;10458849;28;20037;-75
2023/08/18 16:31:51;;;;;;;23.40;5.88;;;;;;;30.41;31.62;100027.53;10458916;28;20037;-75
2023/08/18 16:36:53;;;;;;;77.97;8.00;;;;;;;30.08;32.23;99998.66;10458065;28;20033;-75
2023/08/18 16:41:54;;;;;;;20.27;3.50;;;;;;;30.01;32.15;100008.09;10458586;28;20088;-75
2023/08/18 16:46:55;;;;;;;24.65;3.20;;;;;;;29.64;32.39;99978.19;10457778;28;20045;-76
2023/08/18 16:51:58;;;;;;;16.95;3.05;;;;;;;29.55;32.44;100000.75;10457933;28;20518;-75
2023/08/18 16:56:58;;;;;;;22.23;8.53;;;;;;;29.38;32.37;99988.78;10468376;28;20040;-76
2023/08/18 17:02:00;;;;;;;24.55;5.82;;;;;;;29.38;32.73;100027.91;10468651;28;20071;-75
2023/08/18 17:07:03;;;;;;;18.43;4.47;;;;;;;29.00;34.06;100025.25;10479100;28;20079;-76
2023/08/18 17:12:04;;;;;;;;;;;;;;;28.98;34.01;100030.19;10469633;28;20043;-75
2023/08/18 17:17:05;;;;;;;14.23;4.22;;;;;;;28.27;35.98;100021.13;10496473;28;19953;-76
2023/08/18 17:22:06;;;;;;;21.92;4.40;;;;;;;27.67;36.53;99961.50;10498114;28;20060;-76
2023/08/18 17:27:07;;;;;;;46.70;6.43;;;;;;;27.49;37.46;99973.13;10479401;28;20634;-77
2023/08/18 17:32:07;;;;;;;88.82;8.75;;;;;;;27.57;38.76;100016.16;10456416;28;20037;-76
2023/08/18 17:37:09;;;;;;;25.23;5.57;;;;;;;27.24;39.90;100024.13;10456238;28;20041;-77
2023/08/18 17:42:10;;;;;;;31.45;6.10;;;;;;;26.95;40.42;100015.06;10455507;28;20064;-76
2023/08/18 17:47:11;;;;;;;19.65;5.63;;;;;;;26.46;40.25;99962.25;10454762;28;20051;-76
2023/08/18 17:52:12;;;;;;;41.58;6.57;;;;;;;26.91;41.24;100055.72;10455130;28;20132;-76
2023/08/18 17:57:13;;;;;;;25.10;5.38;;;;;;;26.77;40.41;100030.19;10455792;28;20374;-76
2023/08/18 18:02:18;;;;;;;15.48;6.00;;;;;;;27.05;38.60;100061.34;10453976;28;20064;-76
2023/08/18 18:07:19;;;;;;;29.75;8.10;;;;;;;27.07;38.69;100038.16;10454973;28;20140;-76
2023/08/18 18:12:20;;;;;;;33.55;8.68;;;;;;;27.03;39.54;100041.72;10455764;28;20551;-76
2023/08/18 18:17:20;;;;;;;26.75;12.13;;;;;;;27.09;39.16;100038.66;10455078;28;20041;-76
2023/08/18 18:22:23;;;;;;;42.25;13.18;;;;;;;27.09;39.65;100052.28;10454210;28;20051;-75
2023/08/18 18:27:24;;;;;;;41.10;18.48;;;;;;;26.63;40.00;100013.69;10454728;28;20051;-76
2023/08/18 18:32:25;;;;;;;33.50;12.45;;;;;;;26.33;41.15;100001.03;10453984;28;20090;-75
2023/08/18 18:37:25;;;;;;;26.50;7.28;;;;;;;26.09;41.49;99973.66;10454105;28;20087;-76
2023/08/18 18:42:26;;;;;;;26.42;8.90;;;;;;;26.27;42.61;100051.16;10454409;28;20064;-76
2023/08/18 18:47:29;;;;;;;40.65;8.25;;;;;;;26.21;44.14;100066.72;10454594;28;20044;-76
2023/08/18 18:52:31;;;;;;;32.15;6.47;;;;;;;26.07;44.71;100073.84;10453978;28;20618;-76
2023/08/18 18:57:32;;;;;;;26.25;5.78;;;;;;;25.88;43.62;100070.91;10454310;28;20045;-75
2023/08/18 19:02:34;;;;;;;28.48;5.70;;;;;;;25.76;44.36;100073.88;10452511;28;20069;-75
2023/08/18 19:07:34;;;;;;;23.25;6.45;;;;;;;25.65;44.11;100066.84;10452905;28;20428;-75
2023/08/18 19:12:35;;;;;;;26.27;5.38;;;;;;;25.26;44.36;100019.28;10455770;28;20052;-76
2023/08/18 19:17:36;;;;;;;21.23;5.32;;;;;;;25.33;45.15;100062.50;10461643;28;20041;-76
2023/08/18 19:22:37;;;;;;;16.27;5.07;;;;;;;25.30;45.34;100073.91;10460718;28;20163;-76
2023/08/18 19:27:38;;;;;;;21.45;4.47;;;;;;;25.13;46.97;100060.63;10460690;28;20045;-75
2023/08/18 19:32:39;;;;;;;23.95;5.32;;;;;;;25.05;48.38;100061.13;10460269;28;20119;-75
2023/08/18 19:37:40;;;;;;;27.85;4.95;;;;;;;24.37;49.02;99982.47;10460331;28;20102;-76
2023/08/18 19:42:41;;;;;;;36.83;5.85;;;;;;;24.62;49.96;100051.53;10461238;28;20068;-76
2023/08/18 19:47:42;;;;;;;25.08;4.80;;;;;;;24.45;51.53;100059.94;10458976;28;20052;-75
2023/08/18 19:52:42;;;;;;;16.90;3.90;;;;;;;24.33;53.15;100063.66;10459833;28;20060;-75
2023/08/18 19:57:43;;;;;;;29.05;4.43;;;;;;;24.25;51.37;100066.06;10471140;28;20044;-76
2023/08/18 20:02:45;;;;;;;24.25;4.70;;;;;;;24.27;50.77;100061.19;10460000;28;20512;-76
2023/08/18 20:07:46;;;;;;;22.90;4.65;;;;;;;24.13;51.90;100060.84;10475959;28;20057;-75
2023/08/18 20:12:47;;;;;;;19.30;4.03;;;;;;;23.87;51.56;100033.59;10500437;28;20450;-75
2023/08/18 20:17:48;;;;;;;19.48;4.18;;;;;;;23.89;51.64;100036.03;10469609;28;20483;-75
2023/08/18 20:22:49;;;;;;;17.13;4.00;;;;;;;23.85;51.52;100037.66;10498092;28;20143;-76
2023/08/18 20:27:50;;;;;;;13.60;3.97;;;;;;;23.80;51.68;100019.44;10478295;28;20052;-75
2023/08/18 20:32:53;;;;;;;13.98;4.00;;;;;;;23.71;52.61;100028.34;10458234;28;20041;-76
2023/08/18 20:37:54;;;;;;;10.63;3.47;;;;;;;23.90;53.43;100048.50;10457798;28;20049;-75
2023/08/18 20:42:54;;;;;;;22.40;3.60;;;;;;;23.65;53.95;100017.44;10458287;28;20033;-76
2023/08/18 20:47:55;;;;;;;21.27;3.60;;;;;;;23.77;54.85;100041.66;10458494;28;20041;-76
2023/08/18 20:52:57;;;;;;;20.13;3.55;;;;;;;23.44;55.31;100018.38;10458336;28;20435;-75
2023/08/18 20:57:58;;;;;;;15.45;3.63;;;;;;;23.60;56.23;100054.53;10458439;28;20049;-75
2023/08/18 21:02:58;;;;;;;22.05;3.60;;;;;;;23.44;56.40;100026.53;10457313;28;20037;-76
2023/08/18 21:07:59;;;;;;;23.88;4.97;;;;;;;23.44;56.83;100038.19;10457575;28;20071;-76
2023/08/18 21:13:00;;;;;;;17.77;3.75;;;;;;;23.07;57.34;100021.09;10456638;28;20041;-76
2023/08/18 21:18:01;;;;;;;11.38;3.25;;;;;;;22.63;58.31;99981.41;10457623;28;20052;-75
2023/08/18 21:23:10;;;;;;;15.25;3.53;;;;;;;22.97;58.47;100047.03;10456997;28;20033;-76
2023/08/18 21:28:11;;;;;;;18.40;4.20;;;;;;;22.94;59.07;100047.53;10456612;28;20139;-76
2023/08/18 21:33:12;;;;;;;17.50;3.30;;;;;;;22.20;58.98;99939.84;10466807;28;20112;-76
2023/08/18 21:38:13;;;;;;;40.95;4.35;;;;;;;22.66;59.89;100018.00;10455751;28;20044;-75
2023/08/18 21:43:13;;;;;;;19.15;3.67;;;;;;;22.69;59.78;100042.66;10456452;28;20036;-75
2023/08/18 21:48:14;;;;;;;21.67;4.50;;;;;;;22.62;60.41;100058.28;10455470;28;20041;-76
2023/08/18 21:53:15;;;;;;;41.13;4.60;;;;;;;22.18;60.80;100000.69;10455311;28;20052;-76
2023/08/18 21:58:16;;;;;;;25.05;4.85;;;;;;;22.23;60.71;100014.28;10455867;28;20037;-75
2023/08/18 22:03:19;;;;;;;19.92;3.47;;;;;;;21.75;60.25;99965.25;10454815;28;20048;-75
2023/08/18 22:08:19;;;;;;;22.40;3.65;;;;;;;21.74;60.50;99973.59;10455691;28;20069;-75
2023/08/18 22:13:20;;;;;;;20.83;3.47;;;;;;;22.24;59.87;100064.63;10454645;28;20037;-75
2023/08/18 22:18:21;;;;;;;12.63;2.80;;;;;;;22.09;59.83;100044.38;10455172;28;20044;-75
2023/08/18 22:23:21;;;;;;;39.22;4.80;;;;;;;22.07;60.45;100057.31;10454182;28;20135;-75
2023/08/18 22:28:22;;;;;;;16.38;3.17;;;;;;;22.23;60.42;100063.00;10453997;28;20127;-75
2023/08/18 22:33:23;;;;;;;17.38;3.10;;;;;;;22.39;60.38;100066.69;10454391;28;20037;-75
2023/08/18 22:38:24;;;;;;;21.02;3.30;;;;;;;22.34;60.71;100079.06;10454405;28;20431;-76
2023/08/18 22:43:25;;;;;;;10.18;3.30;;;;;;;21.78;61.03;100001.81;10454496;28;20154;-75
2023/08/18 22:48:26;;;;;;;8.18;2.63;;;;;;;21.73;61.16;99989.03;10457834;28;20097;-75
2023/08/18 22:53:27;;;;;;;9.00;2.88;;;;;;;22.26;60.98;100067.91;10462223;28;20044;-76
2023/08/18 22:58:28;;;;;;;23.08;3.47;;;;;;;22.05;61.61;100045.97;10463295;28;20174;-76